Sariyer, Turkey

11:43 AM EEST on August 28, 2016 (GMT +0300)
IISTANBU28 | | Change Station

Elev 345 ft 41.11 °N, 29.04 °E | Updated 12 minutes ago

Scattered Clouds
Scattered Clouds
76.3 °F
Feels Like 78 °F
N
6.0
Wind Variable Wind from North
Gusts 11.0 mph

Today
High -- | Low -- °F
--% Chance of Precip.
Yesterday
High -- | Low -- °F
Precip. -- in
Pressure 30.04 in
Visibility 6.2 miles
Clouds Scattered Clouds 3000 ft
Heat Index 78 °F
Dew Point 65 °F
Humidity 68%
Rainfall Not available.
Snow Depth Not available.
6:26 AM 7:42 PM
Waning Crescent, 17% visible
METAR LTBA 280820Z 06007KT 360V170 9999 SCT030 28/16 Q1017 NOSIG RMK RWY17L 02008KT 350V060 RWY05 09008KT 040V130 RWY23 07007KT 020V120
Pressure 30.04 in
Visibility 6.2 miles
Clouds Scattered Clouds 3000 ft
Heat Index 78 °F
Dew Point 65 °F
Humidity 68%
Rainfall Not available.
Snow Depth Not available.
6:26 AM 7:42 PM
Waning Crescent, 17% visible
METAR LTBA 280820Z 06007KT 360V170 9999 SCT030 28/16 Q1017 NOSIG RMK RWY17L 02008KT 350V060 RWY05 09008KT 040V130 RWY23 07007KT 020V120

10-Day Weather Forecast

×

Almanac

Astronomy

Aug. 28, 2016 Rise Set
Actual Time
Civil Twilight
Nautical Twilight
Astronomical Twilight
Moon
Length of Visible Light
Length of Day
Tomorrow will be .
, % of the Moon is Illuminated

Today's Extremes

Country Highs Country Lows

Community

WunderPhotos

Upload Photos

1,935,540 photos uploaded!

WunderBlog® & News

Nearby

Air Quality

  Air Quality AQ Index Pollutant
Not available.

Snow Depth

Station Depth Elevation

Earthquake Activity

City Distance Mag. Time & Date
Minimum magnitude displayed is 2.5.

Coastal Water Temperatures

Place Temperature

Stations

Nearby Weather Stations

Station Location Temp. Windchill Dew Point Humidity Wind Precip. Elev Updated Type